createdAt,value
2022-12-18T00:02:25.622Z,22.20
2022-12-18T00:04:53.033Z,21.27
2022-12-18T00:07:20.578Z,26.40
2022-12-18T00:09:47.810Z,26.17
2022-12-18T00:14:45.525Z,25.93
2022-12-18T00:17:12.901Z,24.43
2022-12-18T00:19:40.551Z,32.20
2022-12-18T00:22:08.079Z,26.50
2022-12-18T00:24:35.670Z,22.43
2022-12-18T00:27:03.281Z,18.43
2022-12-18T00:29:31.060Z,19.37
2022-12-18T00:31:59.014Z,19.40
2022-12-18T00:34:26.908Z,21.07
2022-12-18T00:36:54.320Z,20.67
2022-12-18T00:39:21.814Z,16.17
2022-12-18T00:42:07.490Z,15.37
2022-12-18T00:44:35.059Z,16.30
2022-12-18T00:47:03.535Z,17.80
2022-12-18T00:49:30.796Z,20.27
2022-12-18T00:51:58.056Z,16.50
2022-12-18T00:54:25.773Z,11.40
2022-12-18T00:56:53.278Z,12.30
2022-12-18T00:59:20.912Z,12.87
2022-12-18T01:01:49.013Z,15.10
2022-12-18T01:04:17.383Z,23.70
2022-12-18T01:06:44.918Z,20.83
2022-12-18T01:09:12.809Z,18.10
2022-12-18T01:11:40.406Z,23.30
2022-12-18T01:14:08.439Z,23.27
2022-12-18T01:16:36.225Z,21.20
2022-12-18T01:19:03.901Z,22.77
2022-12-18T01:21:32.259Z,23.40
2022-12-18T01:23:59.985Z,23.97
2022-12-18T01:26:29.901Z,21.03
2022-12-18T01:28:57.749Z,26.17
2022-12-18T01:31:27.122Z,23.73
2022-12-18T01:33:55.426Z,17.60
2022-12-18T01:36:24.938Z,15.27
2022-12-18T01:38:54.097Z,19.40
2022-12-18T01:41:24.034Z,25.23
2022-12-18T01:43:54.462Z,13.10
2022-12-18T01:46:23.467Z,8.90
2022-12-18T01:48:53.319Z,11.40
2022-12-18T01:51:21.428Z,16.57
2022-12-18T01:53:49.464Z,16.90
2022-12-18T01:56:22.052Z,19.67
2022-12-18T01:58:56.406Z,13.00
2022-12-18T02:01:25.380Z,16.50
2022-12-18T02:03:53.430Z,15.90
2022-12-18T02:06:27.750Z,20.37
2022-12-18T02:09:06.460Z,20.17
2022-12-18T02:11:43.198Z,19.60
2022-12-18T02:14:18.930Z,17.83
2022-12-18T02:16:52.291Z,15.60
2022-12-18T02:19:40.610Z,18.27
2022-12-18T02:22:24.464Z,20.07
2022-12-18T02:25:05.648Z,19.50
2022-12-18T02:27:35.908Z,19.97
2022-12-18T02:30:04.696Z,19.27
2022-12-18T02:32:36.877Z,17.27
2022-12-18T02:35:08.172Z,17.77
2022-12-18T02:37:37.044Z,16.13
2022-12-18T02:40:06.213Z,16.37
2022-12-18T02:42:34.782Z,11.63
2022-12-18T02:45:02.251Z,13.30
2022-12-18T02:47:32.518Z,14.30
2022-12-18T02:50:08.538Z,13.43
2022-12-18T02:52:42.233Z,17.20
2022-12-18T02:55:26.435Z,17.57
2022-12-18T02:57:57.315Z,13.10
2022-12-18T03:00:29.520Z,14.27
2022-12-18T03:03:02.335Z,17.13
2022-12-18T03:05:33.894Z,15.63
2022-12-18T03:08:05.136Z,18.37
2022-12-18T03:10:38.036Z,17.00
2022-12-18T03:13:09.816Z,12.60
2022-12-18T03:15:41.141Z,14.23
2022-12-18T03:18:13.299Z,15.83
2022-12-18T03:20:44.136Z,17.80
2022-12-18T03:23:17.019Z,16.77
2022-12-18T03:25:47.205Z,14.30
2022-12-18T03:28:20.771Z,15.17
2022-12-18T03:30:51.648Z,16.00
2022-12-18T03:33:24.839Z,13.30
2022-12-18T03:35:52.699Z,13.13
2022-12-18T03:38:20.577Z,12.20
2022-12-18T03:40:59.469Z,11.80
2022-12-18T03:43:40.075Z,14.27
2022-12-18T03:46:14.672Z,16.30
2022-12-18T03:48:51.254Z,16.00
2022-12-18T03:51:25.838Z,14.70
2022-12-18T03:53:58.201Z,17.77
2022-12-18T03:56:29.375Z,18.00
2022-12-18T03:59:00.096Z,11.10
2022-12-18T04:01:32.519Z,10.47
2022-12-18T04:04:02.035Z,18.20
2022-12-18T04:06:30.141Z,14.97
2022-12-18T04:08:58.923Z,14.30
2022-12-18T04:11:26.361Z,14.40
2022-12-18T04:13:57.929Z,14.43
2022-12-18T04:16:25.681Z,16.80
2022-12-18T04:18:53.511Z,13.27
2022-12-18T04:21:21.030Z,11.53
2022-12-18T04:23:48.584Z,23.13
2022-12-18T04:26:15.959Z,18.07
2022-12-18T04:28:43.463Z,15.40
2022-12-18T04:31:11.790Z,14.13
2022-12-18T04:33:39.765Z,14.20
2022-12-18T04:36:08.106Z,15.00
2022-12-18T04:38:35.486Z,13.57
2022-12-18T04:41:03.010Z,14.50
2022-12-18T04:43:30.516Z,13.77
2022-12-18T04:46:04.033Z,23.67
2022-12-18T04:48:32.758Z,21.83
2022-12-18T04:51:00.231Z,13.23
2022-12-18T04:53:27.882Z,17.30
2022-12-18T04:56:05.273Z,15.60
2022-12-18T04:58:32.812Z,12.77
2022-12-18T05:01:00.987Z,13.07
2022-12-18T05:03:28.587Z,15.33
2022-12-18T05:05:57.046Z,20.30
2022-12-18T05:08:25.075Z,12.23
2022-12-18T05:11:00.270Z,13.50
2022-12-18T05:13:27.639Z,12.40
2022-12-18T05:15:55.415Z,9.67
2022-12-18T05:18:23.178Z,10.20
2022-12-18T05:20:51.073Z,10.33
2022-12-18T05:23:19.755Z,11.70
2022-12-18T05:25:51.028Z,13.13
2022-12-18T05:28:18.240Z,11.77
2022-12-18T05:30:50.078Z,10.27
2022-12-18T05:33:17.481Z,13.20
2022-12-18T05:35:45.616Z,11.30
2022-12-18T05:38:12.993Z,9.23
2022-12-18T05:40:43.946Z,11.60
2022-12-18T05:43:14.277Z,11.50
2022-12-18T05:45:45.455Z,12.90
2022-12-18T05:48:13.156Z,7.67
2022-12-18T05:50:42.219Z,10.57
2022-12-18T05:53:10.984Z,11.60
2022-12-18T05:55:39.948Z,8.70
2022-12-18T05:58:09.899Z,9.63
2022-12-18T06:00:40.153Z,9.93
2022-12-18T06:03:08.124Z,11.83
2022-12-18T06:05:37.512Z,11.67
2022-12-18T06:08:05.380Z,8.47
2022-12-18T06:10:33.228Z,12.13
2022-12-18T06:13:00.647Z,10.10
2022-12-18T06:15:28.812Z,8.60
2022-12-18T06:17:56.144Z,13.57
2022-12-18T06:20:23.562Z,11.40
2022-12-18T06:22:51.364Z,11.77
2022-12-18T06:25:19.032Z,12.53
2022-12-18T06:27:48.142Z,10.63
2022-12-18T06:30:16.120Z,11.33
2022-12-18T06:32:45.069Z,8.17
2022-12-18T06:35:16.085Z,7.03
2022-12-18T06:37:43.728Z,9.53
2022-12-18T06:40:11.562Z,12.87
2022-12-18T06:42:39.153Z,12.20
2022-12-18T06:45:07.429Z,10.57
2022-12-18T06:47:34.747Z,10.60
2022-12-18T06:50:03.266Z,9.70
2022-12-18T06:52:32.320Z,8.77
2022-12-18T06:54:59.791Z,8.50
2022-12-18T06:57:27.191Z,7.27
2022-12-18T06:59:54.607Z,9.67
2022-12-18T07:02:22.241Z,10.57
2022-12-18T07:04:50.786Z,5.00
2022-12-18T07:07:19.069Z,3.77
2022-12-18T07:09:46.923Z,9.13
2022-12-18T07:12:14.762Z,11.50
2022-12-18T07:14:42.330Z,9.53
2022-12-18T07:17:09.808Z,10.80
2022-12-18T07:19:37.319Z,10.63
2022-12-18T07:22:04.675Z,12.50
2022-12-18T07:24:34.379Z,9.67
2022-12-18T07:27:02.288Z,11.90
2022-12-18T07:29:29.777Z,8.87
2022-12-18T07:31:57.461Z,13.80
2022-12-18T07:34:25.262Z,9.40
2022-12-18T07:36:52.891Z,9.63
2022-12-18T07:39:20.418Z,8.60
2022-12-18T07:42:08.859Z,10.67
2022-12-18T07:44:36.679Z,10.57
2022-12-18T07:47:07.839Z,11.23
2022-12-18T07:49:38.987Z,10.40
2022-12-18T07:52:06.374Z,8.43
2022-12-18T07:54:34.117Z,11.77
2022-12-18T07:57:02.043Z,16.27
2022-12-18T07:59:29.314Z,13.00
2022-12-18T08:01:56.790Z,14.60
2022-12-18T08:04:24.332Z,20.43
2022-12-18T08:06:52.055Z,13.07
2022-12-18T08:09:19.450Z,14.47
2022-12-18T08:11:47.025Z,13.10
2022-12-18T08:14:15.659Z,12.70
2022-12-18T08:16:43.245Z,14.27
2022-12-18T08:19:10.965Z,13.83
2022-12-18T08:21:38.829Z,17.40
2022-12-18T08:24:07.371Z,12.57
2022-12-18T08:26:35.069Z,13.73
2022-12-18T08:29:02.816Z,12.40
2022-12-18T08:31:32.065Z,12.83
2022-12-18T08:33:59.722Z,14.50
2022-12-18T08:36:27.298Z,14.80
2022-12-18T08:38:55.017Z,17.57
2022-12-18T08:41:22.681Z,16.30
2022-12-18T08:44:08.748Z,14.60
2022-12-18T08:46:38.968Z,13.87
2022-12-18T08:49:07.577Z,12.10
2022-12-18T08:51:36.365Z,13.30
2022-12-18T08:54:05.144Z,13.60
2022-12-18T08:56:34.480Z,14.33
2022-12-18T08:59:02.778Z,14.33
2022-12-18T09:01:30.590Z,14.67
2022-12-18T09:04:00.049Z,14.20
2022-12-18T09:06:28.140Z,16.50
2022-12-18T09:08:55.646Z,14.87
2022-12-18T09:11:24.975Z,16.87
2022-12-18T09:13:52.880Z,14.47
2022-12-18T09:16:21.320Z,12.50
2022-12-18T09:18:49.044Z,15.50
2022-12-18T09:21:19.254Z,21.50
2022-12-18T09:23:51.375Z,15.90
2022-12-18T09:26:19.140Z,19.57
2022-12-18T09:28:46.474Z,22.33
2022-12-18T09:31:16.646Z,20.00
2022-12-18T09:33:45.437Z,18.77
2022-12-18T09:36:15.396Z,17.27
2022-12-18T09:38:44.259Z,16.53
2022-12-18T09:41:26.023Z,17.07
2022-12-18T09:43:59.281Z,17.40
2022-12-18T09:46:30.679Z,11.07
2022-12-18T09:49:02.124Z,15.47
2022-12-18T09:51:35.080Z,21.90
2022-12-18T09:54:07.800Z,20.40
2022-12-18T09:56:40.580Z,18.70
2022-12-18T09:59:16.562Z,21.20
2022-12-18T10:01:44.709Z,21.37
2022-12-18T10:04:14.517Z,19.80
2022-12-18T10:06:48.250Z,19.00
2022-12-18T10:09:24.920Z,16.47
2022-12-18T10:12:03.819Z,17.80
2022-12-18T10:14:41.024Z,17.60
2022-12-18T10:17:21.539Z,18.63
2022-12-18T10:19:54.188Z,21.70
2022-12-18T10:22:45.832Z,27.07
2022-12-18T10:25:22.766Z,25.47
2022-12-18T10:27:54.581Z,24.60
2022-12-18T10:30:24.552Z,25.07
2022-12-18T10:32:52.688Z,32.70
2022-12-18T10:35:22.567Z,29.20
2022-12-18T10:38:20.814Z,32.50
2022-12-18T10:40:53.680Z,23.67
2022-12-18T10:43:26.603Z,24.07
2022-12-18T10:46:03.194Z,26.80
2022-12-18T10:48:32.555Z,21.53
2022-12-18T10:51:15.846Z,21.73
2022-12-18T10:53:51.961Z,31.67
2022-12-18T10:56:22.222Z,28.90
2022-12-18T10:58:58.942Z,26.60
2022-12-18T11:01:29.838Z,21.37
2022-12-18T11:04:08.833Z,21.47
2022-12-18T11:06:55.982Z,21.07
2022-12-18T11:09:25.535Z,22.70
2022-12-18T11:11:56.180Z,26.07
2022-12-18T11:14:26.670Z,22.10
2022-12-18T11:17:24.996Z,24.20
2022-12-18T11:19:44.440Z,24.67
2022-12-18T11:22:22.665Z,18.77
2022-12-18T11:25:30.153Z,21.53
2022-12-18T11:27:51.831Z,20.20
2022-12-18T11:30:24.224Z,14.73
2022-12-18T11:32:55.154Z,16.40
2022-12-18T11:35:38.231Z,18.97
2022-12-18T11:38:13.504Z,19.43
2022-12-18T11:40:45.475Z,22.13
2022-12-18T11:43:18.657Z,19.93
2022-12-18T11:45:56.426Z,19.43
2022-12-18T11:48:28.423Z,19.10
2022-12-18T11:50:57.784Z,19.13
2022-12-18T11:53:27.443Z,18.00
2022-12-18T11:56:06.823Z,18.87
2022-12-18T11:58:48.872Z,19.43
2022-12-18T12:01:40.366Z,17.27
2022-12-18T12:04:47.550Z,17.80
2022-12-18T12:07:25.015Z,17.23
2022-12-18T12:10:01.525Z,16.90
2022-12-18T12:12:48.607Z,19.97
2022-12-18T12:15:31.077Z,20.20
2022-12-18T12:18:11.687Z,19.70
2022-12-18T12:21:06.540Z,20.57
2022-12-18T12:23:47.092Z,18.00
2022-12-18T12:26:24.299Z,17.40
2022-12-18T12:29:03.591Z,20.43
2022-12-18T12:31:49.238Z,21.60
2022-12-18T12:34:29.150Z,20.87
2022-12-18T12:37:19.531Z,19.27
2022-12-18T12:39:51.449Z,19.13
2022-12-18T12:42:47.367Z,19.67
2022-12-18T12:45:22.679Z,16.93
2022-12-18T12:47:53.031Z,16.97
2022-12-18T12:50:22.133Z,19.93
2022-12-18T12:52:52.542Z,16.87
2022-12-18T12:55:23.734Z,17.57
2022-12-18T12:57:59.786Z,14.13
2022-12-18T13:00:32.204Z,17.30
2022-12-18T13:03:07.565Z,20.57
2022-12-18T13:05:45.187Z,17.63
2022-12-18T13:08:24.641Z,21.27
2022-12-18T13:11:16.406Z,17.40
2022-12-18T13:13:52.087Z,18.43
2022-12-18T13:16:21.688Z,20.10
2022-12-18T13:18:54.631Z,19.63
2022-12-18T13:21:27.387Z,19.10
2022-12-18T13:23:55.956Z,18.70
2022-12-18T13:26:34.419Z,17.70
2022-12-18T13:29:04.474Z,14.40
2022-12-18T13:32:08.747Z,17.20
2022-12-18T13:34:37.605Z,17.37
2022-12-18T13:37:41.636Z,15.93
2022-12-18T13:40:57.416Z,19.50
2022-12-18T13:43:34.401Z,15.40
2022-12-18T13:46:17.405Z,14.07
2022-12-18T13:48:55.870Z,17.40
2022-12-18T13:51:25.648Z,14.20
2022-12-18T13:53:55.121Z,15.30
2022-12-18T13:56:24.866Z,18.00
2022-12-18T13:59:17.838Z,15.07
2022-12-18T14:05:49.721Z,17.67
2022-12-18T14:08:24.617Z,14.17
2022-12-18T14:14:34.955Z,15.77
2022-12-18T14:17:02.720Z,16.43
2022-12-18T14:19:30.292Z,17.17
2022-12-18T14:21:57.556Z,17.77
2022-12-18T14:24:25.607Z,16.20
2022-12-18T14:26:52.931Z,17.47
2022-12-18T14:29:23.957Z,16.60
2022-12-18T14:32:14.940Z,20.73
2022-12-18T14:34:44.932Z,18.20
2022-12-18T14:37:13.878Z,16.37
2022-12-18T14:39:52.283Z,15.90
2022-12-18T14:42:19.527Z,14.83
2022-12-18T14:47:34.088Z,18.83
2022-12-18T14:50:01.576Z,14.70
2022-12-18T14:52:32.252Z,14.17
2022-12-18T14:55:00.280Z,16.00
2022-12-18T14:57:35.461Z,14.47
2022-12-18T15:00:06.758Z,13.53
2022-12-18T15:02:37.587Z,21.30
2022-12-18T15:05:16.869Z,17.13
2022-12-18T15:07:46.137Z,16.53
2022-12-18T15:10:16.177Z,15.43
2022-12-18T15:12:44.645Z,15.53
2022-12-18T15:15:45.339Z,14.27
2022-12-18T15:18:17.111Z,15.20
2022-12-18T15:20:48.470Z,16.07
2022-12-18T15:23:21.060Z,10.23
2022-12-18T15:25:55.038Z,12.83
2022-12-18T15:28:26.051Z,16.27
2022-12-18T15:31:04.557Z,12.30
2022-12-18T15:33:34.908Z,13.13
2022-12-18T15:36:07.974Z,15.23
2022-12-18T15:38:35.840Z,15.40
2022-12-18T15:41:04.099Z,16.50
2022-12-18T15:43:35.249Z,14.43
2022-12-18T15:46:04.237Z,15.87
2022-12-18T15:48:33.206Z,15.60
2022-12-18T15:51:00.673Z,16.90
2022-12-18T15:53:32.746Z,15.50
2022-12-18T15:56:18.302Z,13.37
2022-12-18T15:58:46.231Z,10.90
2022-12-18T16:01:26.778Z,17.70
2022-12-18T16:03:54.351Z,19.60
2022-12-18T16:06:21.717Z,17.87
2022-12-18T16:08:49.967Z,15.13
2022-12-18T16:11:38.008Z,17.87
2022-12-18T16:14:11.907Z,14.77
2022-12-18T16:16:39.562Z,12.80
2022-12-18T16:19:06.843Z,15.80
2022-12-18T16:21:34.431Z,15.90
2022-12-18T16:24:01.695Z,15.27
2022-12-18T16:26:28.971Z,18.63
2022-12-18T16:28:56.576Z,14.40
2022-12-18T16:31:25.424Z,9.33
2022-12-18T16:34:10.800Z,15.07
2022-12-18T16:36:38.015Z,17.50
2022-12-18T16:39:05.613Z,14.53
2022-12-18T16:41:33.238Z,8.67
2022-12-18T16:44:00.733Z,12.67
2022-12-18T16:46:28.775Z,16.93
2022-12-18T16:48:57.749Z,14.37
2022-12-18T16:51:25.197Z,14.30
2022-12-18T16:53:52.954Z,14.87
2022-12-18T16:56:20.261Z,16.23
2022-12-18T16:58:51.967Z,12.80
2022-12-18T17:01:19.845Z,22.17
2022-12-18T17:03:53.704Z,19.57
2022-12-18T17:06:21.281Z,18.67
2022-12-18T17:08:49.217Z,21.13
2022-12-18T17:11:16.475Z,17.80
2022-12-18T17:13:43.858Z,17.80
2022-12-18T17:16:11.608Z,17.33
2022-12-18T17:18:39.262Z,17.00
2022-12-18T17:21:08.872Z,18.10
2022-12-18T17:23:36.641Z,14.40
2022-12-18T17:26:06.504Z,15.30
2022-12-18T17:28:34.745Z,18.10
2022-12-18T17:31:02.407Z,16.23
2022-12-18T17:33:29.705Z,16.13
2022-12-18T17:35:59.668Z,17.57
2022-12-18T17:38:27.657Z,17.20
2022-12-18T17:41:00.840Z,20.27
2022-12-18T17:43:28.618Z,14.80
2022-12-18T17:45:57.535Z,17.47
2022-12-18T17:48:27.553Z,18.40
2022-12-18T17:50:56.476Z,14.80
2022-12-18T17:53:24.336Z,16.40
2022-12-18T17:55:55.471Z,14.93
2022-12-18T17:58:22.954Z,14.70
2022-12-18T18:00:51.285Z,16.73
2022-12-18T18:03:21.949Z,15.80
2022-12-18T18:05:49.416Z,18.40
2022-12-18T18:08:16.717Z,16.90
2022-12-18T18:10:49.040Z,14.87
2022-12-18T18:13:43.347Z,16.60
2022-12-18T18:16:13.985Z,14.63
2022-12-18T18:18:43.027Z,17.63
2022-12-18T18:21:11.863Z,12.00
2022-12-18T18:23:41.965Z,17.53
2022-12-18T18:26:11.803Z,16.30
2022-12-18T18:28:41.493Z,12.80
2022-12-18T18:31:10.822Z,16.13
2022-12-18T18:33:38.795Z,19.73
2022-12-18T18:36:10.887Z,19.47
2022-12-18T18:38:39.023Z,18.03
2022-12-18T18:41:07.227Z,22.83
2022-12-18T18:43:34.933Z,12.37
2022-12-18T18:46:04.326Z,16.63
2022-12-18T18:48:34.950Z,17.10
2022-12-18T18:51:06.551Z,15.03
2022-12-18T18:53:37.665Z,20.77
2022-12-18T18:56:45.498Z,23.17
2022-12-18T18:58:52.692Z,16.10
2022-12-18T19:01:21.721Z,15.60
2022-12-18T19:03:49.869Z,13.53
2022-12-18T19:06:19.211Z,15.30
2022-12-18T19:08:48.519Z,15.63
2022-12-18T19:11:36.607Z,14.10
2022-12-18T19:14:06.703Z,13.03
2022-12-18T19:16:35.585Z,13.93
2022-12-18T19:19:03.666Z,13.57
2022-12-18T19:21:33.388Z,17.00
2022-12-18T19:24:02.533Z,10.50
2022-12-18T19:26:30.368Z,13.17
2022-12-18T19:29:01.862Z,11.83
2022-12-18T19:31:34.773Z,11.33
2022-12-18T19:34:06.405Z,14.70
2022-12-18T19:36:35.345Z,17.30
2022-12-18T19:39:07.425Z,17.50
2022-12-18T19:41:34.992Z,16.70
2022-12-18T19:44:07.804Z,9.50
2022-12-18T19:46:42.317Z,13.80
2022-12-18T19:49:11.854Z,14.07
2022-12-18T19:51:45.464Z,10.97
2022-12-18T19:54:17.103Z,14.47
2022-12-18T19:56:47.562Z,11.17
2022-12-18T19:59:15.309Z,13.37
2022-12-18T20:01:42.951Z,13.57
2022-12-18T20:04:12.292Z,10.53
2022-12-18T20:06:49.104Z,13.23
2022-12-18T20:09:18.185Z,13.43
2022-12-18T20:11:49.905Z,12.63
2022-12-18T20:14:22.486Z,12.77
2022-12-18T20:16:51.806Z,13.57
2022-12-18T20:19:20.268Z,11.63
2022-12-18T20:21:47.989Z,10.73
2022-12-18T20:24:15.238Z,12.47
2022-12-18T20:26:42.685Z,13.00
2022-12-18T20:29:09.973Z,7.73
2022-12-18T20:31:37.282Z,11.00
2022-12-18T20:34:04.993Z,12.47
2022-12-18T20:36:36.232Z,13.93
2022-12-18T20:39:06.528Z,13.83
2022-12-18T20:41:38.135Z,9.97
2022-12-18T20:44:21.674Z,12.50
2022-12-18T20:46:52.274Z,11.33
2022-12-18T20:49:19.620Z,12.70
2022-12-18T20:51:51.002Z,13.67
2022-12-18T20:54:18.299Z,12.83
2022-12-18T20:56:45.702Z,11.90
2022-12-18T20:59:12.954Z,11.43
2022-12-18T21:01:41.000Z,10.83
2022-12-18T21:04:15.632Z,12.97
2022-12-18T21:06:51.252Z,12.67
2022-12-18T21:09:20.633Z,13.27
2022-12-18T21:12:06.132Z,10.07
2022-12-18T21:14:33.434Z,12.47
2022-12-18T21:17:01.248Z,10.50
2022-12-18T21:19:28.894Z,10.90
2022-12-18T21:21:57.436Z,12.37
2022-12-18T21:24:24.947Z,10.87
2022-12-18T21:26:52.708Z,12.30
2022-12-18T21:29:21.858Z,11.07
2022-12-18T21:31:49.421Z,12.40
2022-12-18T21:34:19.284Z,11.73
2022-12-18T21:36:46.863Z,11.70
2022-12-18T21:39:15.869Z,11.40
2022-12-18T21:42:01.804Z,10.90
2022-12-18T21:44:29.147Z,13.53
2022-12-18T21:47:02.450Z,12.80
2022-12-18T21:49:36.815Z,9.80
2022-12-18T21:52:04.387Z,12.03
2022-12-18T21:54:32.364Z,9.00
2022-12-18T21:57:01.658Z,11.10
2022-12-18T21:59:31.629Z,6.03
2022-12-18T22:02:01.098Z,10.23
2022-12-18T22:04:28.905Z,11.37
2022-12-18T22:06:57.217Z,10.90
2022-12-18T22:09:25.474Z,13.07
2022-12-18T22:11:53.767Z,14.10
2022-12-18T22:14:22.507Z,12.03
2022-12-18T22:16:50.584Z,11.50
2022-12-18T22:19:18.787Z,14.23
2022-12-18T22:21:47.938Z,11.87
2022-12-18T22:24:17.718Z,12.77
2022-12-18T22:26:46.799Z,16.23
2022-12-18T22:29:34.707Z,14.53
2022-12-18T22:32:02.739Z,9.63
2022-12-18T22:34:34.246Z,12.97
2022-12-18T22:37:03.854Z,13.50
2022-12-18T22:39:31.803Z,14.47
2022-12-18T22:41:59.510Z,14.87
2022-12-18T22:44:27.577Z,13.23
2022-12-18T22:47:06.487Z,12.67
2022-12-18T22:49:35.833Z,13.73
2022-12-18T22:52:04.242Z,16.57
2022-12-18T22:54:31.576Z,15.27
2022-12-18T22:56:58.870Z,12.80
2022-12-18T22:59:26.845Z,13.30
2022-12-18T23:01:57.102Z,13.50
2022-12-18T23:04:27.978Z,14.83
2022-12-18T23:06:58.547Z,11.83
2022-12-18T23:09:25.836Z,14.73
2022-12-18T23:11:53.117Z,15.17
2022-12-18T23:14:20.775Z,15.43
2022-12-18T23:16:49.226Z,12.60
2022-12-18T23:19:18.734Z,15.13
2022-12-18T23:21:46.381Z,16.33
2022-12-18T23:24:13.818Z,14.47
2022-12-18T23:26:41.594Z,13.63
2022-12-18T23:29:08.852Z,16.87
2022-12-18T23:31:37.797Z,11.43
2022-12-18T23:34:06.672Z,16.13
2022-12-18T23:36:43.872Z,10.63
2022-12-18T23:39:24.379Z,15.60
2022-12-18T23:41:57.635Z,12.30
2022-12-18T23:44:25.249Z,13.23
2022-12-18T23:46:52.569Z,12.93
2022-12-18T23:49:20.649Z,15.20
2022-12-18T23:51:48.089Z,15.53
2022-12-18T23:54:15.556Z,14.30
2022-12-18T23:56:43.107Z,15.27
2022-12-18T23:59:10.620Z,13.10
